createdAt,value
2018-10-17T00:02:03.322Z,69.73
2018-10-17T00:04:51.104Z,72.43
2018-10-17T00:07:39.572Z,68.93
2018-10-17T00:10:27.572Z,80.37
2018-10-17T00:13:16.410Z,80.53
2018-10-17T00:16:05.758Z,72.90
2018-10-17T00:18:54.358Z,83.30
2018-10-17T00:21:42.613Z,77.83
2018-10-17T00:24:31.112Z,82.73
2018-10-17T00:27:19.020Z,85.57
2018-10-17T00:30:07.395Z,78.17
2018-10-17T00:32:55.835Z,80.83
2018-10-17T00:35:44.293Z,76.97
2018-10-17T00:38:32.002Z,57.67
2018-10-17T00:41:20.067Z,59.57
2018-10-17T00:44:08.831Z,61.63
2018-10-17T00:46:58.259Z,56.13
2018-10-17T00:49:46.715Z,65.17
2018-10-17T00:52:34.432Z,67.40
2018-10-17T00:55:22.723Z,58.80
2018-10-17T00:58:11.029Z,55.03
2018-10-17T01:01:01.732Z,64.80
2018-10-17T01:03:50.124Z,67.07
2018-10-17T01:06:38.364Z,66.03
2018-10-17T01:09:26.607Z,69.93
2018-10-17T01:12:14.547Z,74.37
2018-10-17T01:16:30.552Z,82.07
2018-10-17T01:19:18.376Z,65.90
2018-10-17T01:22:06.934Z,65.77
2018-10-17T01:24:54.893Z,69.60
2018-10-17T01:27:42.803Z,68.10
2018-10-17T01:30:30.997Z,57.33
2018-10-17T01:33:19.606Z,62.17
2018-10-17T01:36:10.814Z,73.40
2018-10-17T01:38:59.939Z,77.90
2018-10-17T01:41:49.352Z,64.20
2018-10-17T01:44:38.186Z,77.33
2018-10-17T01:47:25.711Z,82.10
2018-10-17T01:50:13.836Z,83.57
2018-10-17T01:53:01.724Z,69.90
2018-10-17T01:55:50.275Z,65.13
2018-10-17T01:58:39.500Z,91.67
2018-10-17T02:01:29.734Z,113.23
2018-10-17T02:04:17.010Z,68.67
2018-10-17T02:07:05.866Z,88.50
2018-10-17T02:09:54.106Z,92.27
2018-10-17T02:12:42.567Z,105.67
2018-10-17T02:15:30.637Z,115.90
2018-10-17T02:18:19.165Z,126.70
2018-10-17T02:21:07.020Z,106.47
2018-10-17T02:23:55.665Z,110.83
2018-10-17T02:26:45.355Z,110.70
2018-10-17T02:29:33.396Z,109.07
2018-10-17T02:32:21.616Z,104.50
2018-10-17T02:35:14.749Z,100.10
2018-10-17T02:38:02.404Z,111.83
2018-10-17T02:40:50.466Z,109.27
2018-10-17T02:43:38.299Z,100.40
2018-10-17T02:46:27.027Z,93.53
2018-10-17T02:49:16.380Z,109.03
2018-10-17T02:52:04.445Z,109.33
2018-10-17T02:54:51.866Z,103.97
2018-10-17T02:57:40.649Z,105.57
2018-10-17T03:00:30.864Z,111.93
2018-10-17T03:03:18.656Z,146.73
2018-10-17T03:06:07.405Z,136.83
2018-10-17T03:08:54.833Z,135.23
2018-10-17T03:11:44.740Z,83.37
2018-10-17T03:14:33.139Z,90.93
2018-10-17T03:17:21.546Z,100.17
2018-10-17T03:20:11.827Z,93.07
2018-10-17T03:23:03.817Z,110.83
2018-10-17T03:25:52.389Z,97.73
2018-10-17T03:28:40.332Z,109.70
2018-10-17T03:31:29.414Z,84.97
2018-10-17T03:34:17.772Z,82.13
2018-10-17T03:37:06.597Z,90.93
2018-10-17T03:39:54.946Z,82.77
2018-10-17T03:42:43.690Z,79.70
2018-10-17T03:45:31.711Z,91.60
2018-10-17T03:48:22.672Z,87.93
2018-10-17T03:51:12.867Z,77.37
2018-10-17T03:54:01.614Z,89.23
2018-10-17T03:56:50.117Z,78.00
2018-10-17T03:59:38.592Z,77.00
2018-10-17T04:02:26.021Z,68.60
2018-10-17T04:05:14.249Z,65.00
2018-10-17T04:08:01.678Z,69.13
2018-10-17T04:10:50.262Z,69.60
2018-10-17T04:13:38.140Z,77.87
2018-10-17T04:16:26.856Z,69.57
2018-10-17T04:19:15.466Z,71.60
2018-10-17T04:22:05.600Z,61.47
2018-10-17T04:24:54.068Z,69.23
2018-10-17T04:27:41.754Z,65.07
2018-10-17T04:30:29.678Z,67.73
2018-10-17T04:33:17.967Z,57.60
2018-10-17T04:36:10.446Z,59.67
2018-10-17T04:39:05.306Z,67.00
2018-10-17T04:41:53.947Z,62.80
2018-10-17T04:44:42.875Z,57.03
2018-10-17T04:47:44.866Z,57.80
2018-10-17T04:50:40.371Z,55.67
2018-10-17T04:53:47.799Z,58.00
2018-10-17T04:56:37.041Z,63.03
2018-10-17T04:59:33.192Z,62.27
2018-10-17T05:06:51.562Z,52.27
2018-10-17T05:09:46.636Z,55.53
2018-10-17T05:12:37.589Z,48.73
2018-10-17T05:15:35.383Z,51.60
2018-10-17T05:18:34.988Z,55.20
2018-10-17T05:24:46.681Z,55.50
2018-10-17T05:27:42.519Z,50.83
2018-10-17T05:30:40.296Z,57.73
2018-10-17T05:33:41.428Z,55.70
2018-10-17T05:36:33.291Z,52.43
2018-10-17T05:39:23.763Z,57.47
2018-10-17T05:42:17.438Z,53.43
2018-10-17T05:45:12.489Z,56.80
2018-10-17T05:51:24.635Z,53.47
2018-10-17T05:54:18.750Z,52.77
2018-10-17T05:57:16.569Z,47.90
2018-10-17T06:00:53.298Z,56.90
2018-10-17T06:03:55.800Z,47.03
2018-10-17T06:09:12.259Z,52.15
2018-10-17T06:12:02.554Z,45.27
2018-10-17T06:15:04.460Z,40.63
2018-10-17T06:18:33.441Z,45.67
2018-10-17T06:25:17.958Z,49.60
2018-10-17T06:28:11.047Z,49.70
2018-10-17T06:31:00.448Z,47.10
2018-10-17T06:33:51.134Z,48.60
2018-10-17T06:36:46.014Z,48.87
2018-10-17T06:39:40.055Z,44.30
2018-10-17T06:56:48.873Z,44.48
2018-10-17T07:14:20.470Z,50.50
2018-10-17T07:20:26.962Z,42.73
2018-10-17T07:23:29.387Z,48.20
2018-10-17T07:26:23.956Z,41.42
2018-10-17T07:29:15.893Z,46.85
2018-10-17T07:32:17.725Z,45.63
2018-10-17T07:35:10.757Z,42.90
2018-10-17T07:38:00.481Z,46.60
2018-10-17T07:40:48.619Z,39.27
2018-10-17T07:43:37.457Z,47.80
2018-10-17T07:46:45.289Z,54.87
2018-10-17T07:49:53.436Z,44.50
2018-10-17T07:52:45.744Z,61.07
2018-10-17T07:55:41.571Z,52.73
2018-10-17T08:01:48.438Z,52.10
2018-10-17T08:04:42.256Z,45.40
2018-10-17T08:07:43.758Z,49.57
2018-10-17T08:10:37.979Z,57.73
2018-10-17T08:13:34.807Z,48.93
2018-10-17T08:16:25.387Z,52.27
2018-10-17T08:22:06.405Z,49.83
2018-10-17T08:25:01.621Z,53.57
2018-10-17T08:27:57.117Z,52.95
2018-10-17T08:30:47.800Z,63.97
2018-10-17T08:33:41.418Z,53.20
2018-10-17T08:36:38.202Z,55.03
2018-10-17T08:39:30.924Z,51.45
2018-10-17T08:42:22.169Z,44.93
2018-10-17T08:45:15.863Z,53.60
2018-10-17T08:48:11.463Z,52.97
2018-10-17T08:52:30.549Z,50.67
2018-10-17T08:55:21.311Z,47.83
2018-10-17T08:58:13.649Z,59.23
2018-10-17T09:01:08.513Z,47.20
2018-10-17T09:04:06.217Z,52.83
2018-10-17T09:07:04.300Z,60.55
2018-10-17T09:09:56.712Z,60.33
2018-10-17T09:12:49.803Z,67.50
2018-10-17T09:18:04.345Z,59.07
2018-10-17T09:20:54.570Z,50.10
2018-10-17T09:23:45.262Z,56.08
2018-10-17T09:26:37.498Z,50.35
2018-10-17T09:29:29.444Z,51.87
2018-10-17T09:35:23.256Z,52.87
2018-10-17T09:38:40.483Z,57.40
2018-10-17T09:45:29.804Z,54.83
2018-10-17T09:48:17.739Z,62.43
2018-10-17T09:51:06.719Z,50.25
2018-10-17T09:53:54.020Z,52.17
2018-10-17T09:56:41.747Z,51.63
2018-10-17T09:59:32.986Z,51.90
2018-10-17T10:02:20.791Z,54.03
2018-10-17T10:05:08.468Z,54.27
2018-10-17T10:07:54.721Z,60.93
2018-10-17T10:10:43.759Z,54.87
2018-10-17T10:13:32.461Z,63.87
2018-10-17T10:16:20.635Z,54.47
2018-10-17T10:19:08.609Z,62.27
2018-10-17T10:21:55.399Z,49.70
2018-10-17T10:24:48.483Z,56.97
2018-10-17T10:27:44.607Z,51.20
2018-10-17T10:30:35.424Z,61.27
2018-10-17T10:33:22.982Z,52.30
2018-10-17T10:36:13.033Z,47.47
2018-10-17T10:39:01.068Z,57.17
2018-10-17T10:41:49.280Z,55.03
2018-10-17T10:44:38.879Z,56.43
2018-10-17T10:47:27.284Z,49.47
2018-10-17T10:50:15.654Z,51.93
2018-10-17T10:53:05.604Z,48.33
2018-10-17T10:55:57.374Z,53.97
2018-10-17T10:58:45.567Z,48.65
2018-10-17T11:01:32.688Z,59.10
2018-10-17T11:04:23.514Z,52.73
2018-10-17T11:07:12.695Z,61.43
2018-10-17T11:10:01.026Z,53.17
2018-10-17T11:12:50.142Z,55.92
2018-10-17T11:15:38.553Z,59.20
2018-10-17T11:18:28.449Z,51.25
2018-10-17T11:21:21.324Z,49.97
2018-10-17T11:24:13.210Z,51.68
2018-10-17T11:27:11.992Z,57.30
2018-10-17T11:30:04.325Z,44.33
2018-10-17T11:33:01.560Z,59.73
2018-10-17T11:36:00.644Z,52.27
2018-10-17T11:39:01.015Z,58.83
2018-10-17T11:41:54.080Z,62.83
2018-10-17T11:48:15.002Z,60.78
2018-10-17T11:51:09.264Z,56.57
2018-10-17T12:03:49.379Z,64.05
2018-10-17T12:06:44.256Z,56.77
2018-10-17T12:09:37.086Z,61.43
2018-10-17T12:12:28.657Z,53.40
2018-10-17T12:15:26.829Z,64.00
2018-10-17T12:18:36.834Z,56.73
2018-10-17T12:21:38.591Z,57.97
2018-10-17T12:24:39.552Z,63.80
2018-10-17T12:27:32.055Z,62.77
2018-10-17T12:30:26.814Z,64.67
2018-10-17T12:33:17.791Z,56.13
2018-10-17T12:36:08.890Z,63.17
2018-10-17T12:39:01.002Z,68.70
2018-10-17T12:41:51.220Z,66.10
2018-10-17T12:44:44.635Z,64.05
2018-10-17T12:47:36.855Z,67.43
2018-10-17T12:50:34.073Z,74.40
2018-10-17T12:53:24.493Z,69.73
2018-10-17T12:56:15.513Z,77.63
2018-10-17T12:59:08.053Z,69.03
2018-10-17T13:01:58.955Z,75.73
2018-10-17T13:04:49.887Z,89.03
2018-10-17T13:07:40.903Z,75.90
2018-10-17T13:10:31.049Z,74.80
2018-10-17T13:13:24.965Z,80.60
2018-10-17T13:16:14.495Z,80.50
2018-10-17T13:19:06.478Z,73.80
2018-10-17T13:21:55.456Z,79.50
2018-10-17T13:24:56.519Z,72.87
2018-10-17T13:27:47.630Z,82.70
2018-10-17T13:30:39.162Z,82.20
2018-10-17T13:33:32.813Z,79.60
2018-10-17T13:36:23.679Z,84.77
2018-10-17T13:39:16.890Z,80.43
2018-10-17T13:42:07.429Z,78.60
2018-10-17T13:44:57.340Z,75.23
2018-10-17T13:47:47.966Z,77.30
2018-10-17T13:50:39.083Z,80.20
2018-10-17T13:53:27.724Z,75.67
2018-10-17T13:56:17.857Z,78.47
2018-10-17T13:59:06.674Z,90.33
2018-10-17T14:01:56.425Z,79.40
2018-10-17T14:04:50.135Z,77.73
2018-10-17T14:07:40.742Z,87.25
2018-10-17T14:10:31.578Z,68.57
2018-10-17T14:13:22.017Z,80.23
2018-10-17T14:16:13.600Z,84.30
2018-10-17T14:19:03.299Z,82.37
2018-10-17T14:21:56.170Z,62.55
2018-10-17T14:24:46.901Z,78.28
2018-10-17T14:27:36.781Z,84.23
2018-10-17T14:30:27.632Z,80.83
2018-10-17T14:33:20.607Z,76.37
2018-10-17T14:39:08.799Z,72.80
2018-10-17T14:41:59.297Z,74.37
2018-10-17T14:44:52.735Z,69.32
2018-10-17T14:47:45.914Z,74.22
2018-10-17T14:50:37.772Z,67.07
2018-10-17T14:53:30.626Z,69.40
2018-10-17T14:56:22.328Z,74.30
2018-10-17T14:59:15.780Z,76.03
2018-10-17T15:02:12.835Z,79.63
2018-10-17T15:05:05.533Z,72.37
2018-10-17T15:07:59.471Z,70.90
2018-10-17T15:10:50.686Z,74.97
2018-10-17T15:13:41.670Z,66.07
2018-10-17T15:16:33.430Z,70.07
2018-10-17T15:19:28.012Z,69.65
2018-10-17T15:22:19.744Z,73.83
2018-10-17T15:25:11.146Z,82.03
2018-10-17T15:28:04.275Z,71.60
2018-10-17T15:30:57.796Z,75.67
2018-10-17T15:33:52.150Z,75.17
2018-10-17T15:36:45.891Z,69.12
2018-10-17T15:39:39.165Z,70.30
2018-10-17T15:42:31.161Z,68.40
2018-10-17T15:45:21.457Z,74.73
2018-10-17T15:48:14.001Z,69.43
2018-10-17T15:51:04.006Z,69.27
2018-10-17T15:53:56.943Z,74.50
2018-10-17T15:56:53.406Z,69.13
2018-10-17T15:59:46.931Z,65.78
2018-10-17T16:02:41.942Z,70.60
2018-10-17T16:05:33.793Z,70.77
2018-10-17T16:08:27.693Z,68.37
2018-10-17T16:11:21.315Z,73.03
2018-10-17T16:14:13.573Z,70.07
2018-10-17T16:17:05.487Z,71.50
2018-10-17T16:19:59.553Z,71.17
2018-10-17T16:22:52.751Z,64.37
2018-10-17T16:25:49.006Z,71.30
2018-10-17T16:28:41.431Z,61.60
2018-10-17T16:31:35.609Z,72.40
2018-10-17T16:34:28.372Z,73.83
2018-10-17T16:37:21.520Z,72.60
2018-10-17T16:40:14.936Z,70.10
2018-10-17T16:43:10.104Z,67.83
2018-10-17T16:46:01.937Z,75.00
2018-10-17T16:48:53.801Z,77.73
2018-10-17T16:51:46.334Z,72.40
2018-10-17T16:54:39.617Z,67.07
2018-10-17T16:57:32.622Z,71.73
2018-10-17T17:00:29.297Z,66.17
2018-10-17T17:03:23.976Z,75.93
2018-10-17T17:06:16.735Z,71.07
2018-10-17T17:09:10.641Z,74.80
2018-10-17T17:12:04.439Z,67.87
2018-10-17T17:14:58.499Z,70.23
2018-10-17T17:17:51.635Z,62.53
2018-10-17T17:20:45.324Z,72.50
2018-10-17T17:23:39.797Z,77.73
2018-10-17T17:26:32.554Z,78.07
2018-10-17T17:29:26.091Z,87.03
2018-10-17T17:32:18.034Z,80.13
2018-10-17T17:35:10.085Z,71.37
2018-10-17T17:38:01.732Z,66.63
2018-10-17T17:40:50.853Z,71.10
2018-10-17T17:43:39.817Z,69.80
2018-10-17T17:46:29.326Z,69.80
2018-10-17T17:49:18.637Z,66.90
2018-10-17T17:52:09.073Z,64.00
2018-10-17T17:55:01.562Z,64.70
2018-10-17T17:57:51.219Z,70.43
2018-10-17T18:00:40.118Z,71.07
2018-10-17T18:03:28.447Z,64.10
2018-10-17T18:06:17.448Z,66.03
2018-10-17T18:09:06.060Z,63.33
2018-10-17T18:11:57.213Z,66.97
2018-10-17T18:14:47.916Z,60.63
2018-10-17T18:17:39.259Z,61.80
2018-10-17T18:20:30.222Z,67.10
2018-10-17T18:23:22.460Z,68.93
2018-10-17T18:26:14.457Z,65.97
2018-10-17T18:29:06.114Z,59.30
2018-10-17T18:31:54.926Z,57.43
2018-10-17T18:34:44.766Z,60.33
2018-10-17T18:37:33.355Z,58.27
2018-10-17T18:40:21.591Z,69.37
2018-10-17T18:43:14.720Z,60.90
2018-10-17T18:46:07.063Z,55.60
2018-10-17T18:48:55.511Z,62.53
2018-10-17T18:51:43.208Z,70.43
2018-10-17T18:54:31.687Z,61.50
2018-10-17T18:57:21.211Z,55.53
2018-10-17T19:00:10.177Z,55.93
2018-10-17T19:02:58.183Z,54.67
2018-10-17T19:05:46.192Z,59.57
2018-10-17T19:08:34.352Z,68.57
2018-10-17T19:11:27.390Z,59.20
2018-10-17T19:14:19.979Z,57.87
2018-10-17T19:17:11.289Z,63.10
2018-10-17T19:20:03.221Z,62.95
2018-10-17T19:22:55.061Z,57.83
2018-10-17T19:25:46.498Z,55.00
2018-10-17T19:28:37.438Z,52.70
2018-10-17T19:31:28.277Z,52.30
2018-10-17T19:34:21.122Z,58.00
2018-10-17T19:37:15.833Z,55.17
2018-10-17T19:40:07.628Z,52.73
2018-10-17T19:42:58.600Z,50.77
2018-10-17T19:45:50.353Z,54.43
2018-10-17T19:48:38.553Z,60.63
2018-10-17T19:51:27.039Z,52.80
2018-10-17T19:54:15.082Z,58.37
2018-10-17T19:57:03.726Z,57.17
2018-10-17T19:59:53.530Z,54.03
2018-10-17T20:02:45.380Z,63.53
2018-10-17T20:05:34.130Z,65.50
2018-10-17T20:08:22.832Z,52.60
2018-10-17T20:11:13.866Z,50.83
2018-10-17T20:14:02.553Z,49.67
2018-10-17T20:16:53.421Z,52.77
2018-10-17T20:19:44.813Z,51.67
2018-10-17T20:22:36.217Z,54.07
2018-10-17T20:25:27.177Z,52.63
2018-10-17T20:28:18.420Z,57.63
2018-10-17T20:31:10.193Z,61.10
2018-10-17T20:34:00.735Z,51.23
2018-10-17T20:36:50.660Z,51.30
2018-10-17T20:39:41.280Z,56.73
2018-10-17T20:42:31.386Z,53.27
2018-10-17T20:45:21.529Z,52.00
2018-10-17T20:48:12.141Z,55.67
2018-10-17T20:51:02.573Z,55.33
2018-10-17T20:53:53.612Z,55.93
2018-10-17T20:56:42.829Z,58.70
2018-10-17T20:59:32.632Z,53.80
2018-10-17T21:02:21.682Z,58.50
2018-10-17T21:05:12.540Z,50.73
2018-10-17T21:08:02.696Z,53.63
2018-10-17T21:10:52.410Z,50.47
2018-10-17T21:13:42.064Z,61.07
2018-10-17T21:16:32.291Z,55.30
2018-10-17T21:19:24.016Z,53.43
2018-10-17T21:22:13.780Z,49.53
2018-10-17T21:25:04.127Z,51.43
2018-10-17T21:27:54.439Z,56.37
2018-10-17T21:30:49.198Z,46.43
2018-10-17T21:33:41.165Z,47.77
2018-10-17T21:36:32.045Z,51.90
2018-10-17T21:39:22.512Z,49.77
2018-10-17T21:42:13.706Z,51.67
2018-10-17T21:45:03.831Z,52.00
2018-10-17T21:47:53.787Z,59.13
2018-10-17T21:50:43.245Z,53.83
2018-10-17T21:53:32.459Z,46.53
2018-10-17T21:56:21.494Z,45.13
2018-10-17T21:59:11.157Z,47.67
2018-10-17T22:01:59.101Z,47.60
2018-10-17T22:04:48.757Z,43.77
2018-10-17T22:07:39.846Z,48.60
2018-10-17T22:10:29.459Z,56.20
2018-10-17T22:13:20.850Z,52.47
2018-10-17T22:16:10.841Z,43.53
2018-10-17T22:19:01.105Z,45.97
2018-10-17T22:21:50.313Z,46.90
2018-10-17T22:24:41.222Z,49.57
2018-10-17T22:27:32.928Z,46.83
2018-10-17T22:30:23.256Z,49.40
2018-10-17T22:33:14.348Z,47.17
2018-10-17T22:36:05.492Z,46.63
2018-10-17T22:38:56.273Z,43.77
2018-10-17T22:41:45.695Z,46.47
2018-10-17T22:44:35.920Z,48.20
2018-10-17T22:47:25.180Z,49.97
2018-10-17T22:50:14.304Z,45.27
2018-10-17T22:53:05.485Z,41.43
2018-10-17T22:55:56.645Z,37.33
2018-10-17T22:58:47.265Z,43.27
2018-10-17T23:01:38.386Z,46.23
2018-10-17T23:04:26.731Z,50.27
2018-10-17T23:07:14.768Z,48.23
2018-10-17T23:10:03.166Z,44.33
2018-10-17T23:12:50.829Z,42.30
2018-10-17T23:15:41.240Z,43.63
2018-10-17T23:18:29.810Z,50.03
2018-10-17T23:21:17.343Z,40.13
2018-10-17T23:24:05.672Z,40.53
2018-10-17T23:26:53.163Z,40.90
2018-10-17T23:29:40.870Z,43.53
2018-10-17T23:32:28.832Z,46.07
2018-10-17T23:35:16.658Z,48.00
2018-10-17T23:38:04.362Z,47.00
2018-10-17T23:40:55.070Z,44.67
2018-10-17T23:43:45.479Z,42.30
2018-10-17T23:46:37.643Z,45.90
2018-10-17T23:49:28.117Z,38.00
2018-10-17T23:52:17.120Z,46.40
2018-10-17T23:55:05.389Z,51.30
2018-10-17T23:57:53.061Z,58.83
